sensor_id;sensor_type;location;lat;lon;timestamp;temperature;humidity
61765;DHT22;50188;48.114;-1.388;2022-07-06T00:01:23;16.30;78.20
61765;DHT22;50188;48.114;-1.388;2022-07-06T00:03:49;16.30;78.20
61765;DHT22;50188;48.114;-1.388;2022-07-06T00:06:15;16.20;78.20
61765;DHT22;50188;48.114;-1.388;2022-07-06T00:08:42;16.20;78.70
61765;DHT22;50188;48.114;-1.388;2022-07-06T00:11:08;16.10;78.60
61765;DHT22;50188;48.114;-1.388;2022-07-06T00:13:34;16.20;78.60
61765;DHT22;50188;48.114;-1.388;2022-07-06T00:15:59;16.20;78.50
61765;DHT22;50188;48.114;-1.388;2022-07-06T00:18:25;16.20;78.30
61765;DHT22;50188;48.114;-1.388;2022-07-06T00:20:51;16.10;78.20
61765;DHT22;50188;48.114;-1.388;2022-07-06T00:23:16;16.20;78.10
61765;DHT22;50188;48.114;-1.388;2022-07-06T00:25:42;16.20;78.00
61765;DHT22;50188;48.114;-1.388;2022-07-06T00:28:08;16.10;77.80
61765;DHT22;50188;48.114;-1.388;2022-07-06T00:30:33;16.10;77.80
61765;DHT22;50188;48.114;-1.388;2022-07-06T00:32:59;16.10;77.60
61765;DHT22;50188;48.114;-1.388;2022-07-06T00:35:25;16.00;78.20
61765;DHT22;50188;48.114;-1.388;2022-07-06T00:37:51;16.00;78.30
61765;DHT22;50188;48.114;-1.388;2022-07-06T00:40:17;16.00;78.50
61765;DHT22;50188;48.114;-1.388;2022-07-06T00:42:45;16.00;78.00
61765;DHT22;50188;48.114;-1.388;2022-07-06T00:45:12;16.00;77.30
61765;DHT22;50188;48.114;-1.388;2022-07-06T00:47:38;16.00;76.80
61765;DHT22;50188;48.114;-1.388;2022-07-06T00:50:05;16.00;76.40
61765;DHT22;50188;48.114;-1.388;2022-07-06T00:52:42;15.90;76.90
61765;DHT22;50188;48.114;-1.388;2022-07-06T00:55:09;15.90;77.30
61765;DHT22;50188;48.114;-1.388;2022-07-06T00:57:35;15.90;77.00
61765;DHT22;50188;48.114;-1.388;2022-07-06T01:00:06;15.90;76.70
61765;DHT22;50188;48.114;-1.388;2022-07-06T01:02:32;15.90;76.50
61765;DHT22;50188;48.114;-1.388;2022-07-06T01:04:58;15.80;76.10
61765;DHT22;50188;48.114;-1.388;2022-07-06T01:07:24;15.70;77.00
61765;DHT22;50188;48.114;-1.388;2022-07-06T01:09:50;15.80;77.00
61765;DHT22;50188;48.114;-1.388;2022-07-06T01:12:16;15.70;77.40
61765;DHT22;50188;48.114;-1.388;2022-07-06T01:14:42;15.60;77.40
61765;DHT22;50188;48.114;-1.388;2022-07-06T01:17:08;15.60;78.00
61765;DHT22;50188;48.114;-1.388;2022-07-06T01:19:34;15.60;77.40
61765;DHT22;50188;48.114;-1.388;2022-07-06T01:22:00;15.60;77.10
61765;DHT22;50188;48.114;-1.388;2022-07-06T01:24:26;15.60;77.80
61765;DHT22;50188;48.114;-1.388;2022-07-06T01:26:52;15.50;79.00
61765;DHT22;50188;48.114;-1.388;2022-07-06T01:29:18;15.40;79.20
61765;DHT22;50188;48.114;-1.388;2022-07-06T01:31:48;15.40;80.20
61765;DHT22;50188;48.114;-1.388;2022-07-06T01:34:14;15.20;82.10
61765;DHT22;50188;48.114;-1.388;2022-07-06T01:36:40;15.20;82.10
61765;DHT22;50188;48.114;-1.388;2022-07-06T01:39:08;15.30;81.60
61765;DHT22;50188;48.114;-1.388;2022-07-06T01:41:34;15.20;82.10
61765;DHT22;50188;48.114;-1.388;2022-07-06T01:43:59;15.40;81.30
61765;DHT22;50188;48.114;-1.388;2022-07-06T01:46:25;15.40;80.80
61765;DHT22;50188;48.114;-1.388;2022-07-06T01:48:51;15.50;80.20
61765;DHT22;50188;48.114;-1.388;2022-07-06T01:51:17;15.50;79.60
61765;DHT22;50188;48.114;-1.388;2022-07-06T01:53:43;15.50;79.70
61765;DHT22;50188;48.114;-1.388;2022-07-06T01:56:09;15.50;79.60
61765;DHT22;50188;48.114;-1.388;2022-07-06T01:58:34;15.50;79.50
61765;DHT22;50188;48.114;-1.388;2022-07-06T02:01:01;15.50;80.30
61765;DHT22;50188;48.114;-1.388;2022-07-06T02:03:26;15.50;80.20
61765;DHT22;50188;48.114;-1.388;2022-07-06T02:05:52;15.50;80.20
61765;DHT22;50188;48.114;-1.388;2022-07-06T02:08:17;15.50;80.20
61765;DHT22;50188;48.114;-1.388;2022-07-06T02:10:43;15.40;80.70
61765;DHT22;50188;48.114;-1.388;2022-07-06T02:13:09;15.30;81.30
61765;DHT22;50188;48.114;-1.388;2022-07-06T02:15:34;15.40;81.30
61765;DHT22;50188;48.114;-1.388;2022-07-06T02:18:00;15.20;82.20
61765;DHT22;50188;48.114;-1.388;2022-07-06T02:20:26;15.00;83.10
61765;DHT22;50188;48.114;-1.388;2022-07-06T02:22:51;14.90;83.50
61765;DHT22;50188;48.114;-1.388;2022-07-06T02:25:17;14.90;84.10
61765;DHT22;50188;48.114;-1.388;2022-07-06T02:27:42;14.90;84.00
61765;DHT22;50188;48.114;-1.388;2022-07-06T02:30:08;15.00;83.50
61765;DHT22;50188;48.114;-1.388;2022-07-06T02:32:34;15.00;83.60
61765;DHT22;50188;48.114;-1.388;2022-07-06T02:35:00;15.10;82.80
61765;DHT22;50188;48.114;-1.388;2022-07-06T02:37:25;15.10;82.60
61765;DHT22;50188;48.114;-1.388;2022-07-06T02:39:51;15.10;82.70
61765;DHT22;50188;48.114;-1.388;2022-07-06T02:42:16;15.00;82.80
61765;DHT22;50188;48.114;-1.388;2022-07-06T02:44:42;15.10;82.80
61765;DHT22;50188;48.114;-1.388;2022-07-06T02:47:08;14.90;84.00
61765;DHT22;50188;48.114;-1.388;2022-07-06T02:49:33;14.80;84.60
61765;DHT22;50188;48.114;-1.388;2022-07-06T02:51:59;14.90;84.40
61765;DHT22;50188;48.114;-1.388;2022-07-06T02:54:24;15.00;84.20
61765;DHT22;50188;48.114;-1.388;2022-07-06T02:56:50;15.10;83.50
61765;DHT22;50188;48.114;-1.388;2022-07-06T02:59:21;15.10;83.20
61765;DHT22;50188;48.114;-1.388;2022-07-06T03:01:47;15.10;83.40
61765;DHT22;50188;48.114;-1.388;2022-07-06T03:04:13;15.20;83.00
61765;DHT22;50188;48.114;-1.388;2022-07-06T03:06:38;15.20;83.00
61765;DHT22;50188;48.114;-1.388;2022-07-06T03:09:04;15.20;83.00
61765;DHT22;50188;48.114;-1.388;2022-07-06T03:11:30;15.20;83.00
61765;DHT22;50188;48.114;-1.388;2022-07-06T03:13:55;15.30;82.80
61765;DHT22;50188;48.114;-1.388;2022-07-06T03:16:21;15.30;82.60
61765;DHT22;50188;48.114;-1.388;2022-07-06T03:18:46;15.30;82.80
61765;DHT22;50188;48.114;-1.388;2022-07-06T03:21:12;15.10;83.70
61765;DHT22;50188;48.114;-1.388;2022-07-06T03:23:38;15.00;84.70
61765;DHT22;50188;48.114;-1.388;2022-07-06T03:26:03;14.80;85.80
61765;DHT22;50188;48.114;-1.388;2022-07-06T03:28:29;14.70;86.60
61765;DHT22;50188;48.114;-1.388;2022-07-06T03:30:54;14.70;86.90
61765;DHT22;50188;48.114;-1.388;2022-07-06T03:33:20;14.70;87.40
61765;DHT22;50188;48.114;-1.388;2022-07-06T03:35:46;14.70;87.60
61765;DHT22;50188;48.114;-1.388;2022-07-06T03:38:11;14.70;87.50
61765;DHT22;50188;48.114;-1.388;2022-07-06T03:40:37;14.60;88.10
61765;DHT22;50188;48.114;-1.388;2022-07-06T03:43:03;14.60;88.20
61765;DHT22;50188;48.114;-1.388;2022-07-06T03:45:28;14.60;88.40
61765;DHT22;50188;48.114;-1.388;2022-07-06T03:47:54;14.50;89.40
61765;DHT22;50188;48.114;-1.388;2022-07-06T03:50:19;14.50;89.70
61765;DHT22;50188;48.114;-1.388;2022-07-06T03:52:45;14.50;89.50
61765;DHT22;50188;48.114;-1.388;2022-07-06T03:55:12;14.50;89.80
61765;DHT22;50188;48.114;-1.388;2022-07-06T03:57:38;14.50;89.70
61765;DHT22;50188;48.114;-1.388;2022-07-06T04:00:06;14.60;89.50
61765;DHT22;50188;48.114;-1.388;2022-07-06T04:02:32;14.70;88.80
61765;DHT22;50188;48.114;-1.388;2022-07-06T04:04:58;14.80;88.00
61765;DHT22;50188;48.114;-1.388;2022-07-06T04:07:24;14.80;87.40
61765;DHT22;50188;48.114;-1.388;2022-07-06T04:09:50;14.90;86.70
61765;DHT22;50188;48.114;-1.388;2022-07-06T04:12:15;14.90;86.10
61765;DHT22;50188;48.114;-1.388;2022-07-06T04:14:42;15.00;86.20
61765;DHT22;50188;48.114;-1.388;2022-07-06T04:17:07;15.00;85.50
61765;DHT22;50188;48.114;-1.388;2022-07-06T04:19:53;15.10;85.20
61765;DHT22;50188;48.114;-1.388;2022-07-06T04:22:18;15.00;84.50
61765;DHT22;50188;48.114;-1.388;2022-07-06T04:24:44;15.10;84.00
61765;DHT22;50188;48.114;-1.388;2022-07-06T04:27:10;15.10;83.40
61765;DHT22;50188;48.114;-1.388;2022-07-06T04:29:35;15.10;82.60
61765;DHT22;50188;48.114;-1.388;2022-07-06T04:32:02;15.10;82.00
61765;DHT22;50188;48.114;-1.388;2022-07-06T04:34:27;15.20;82.90
61765;DHT22;50188;48.114;-1.388;2022-07-06T04:36:53;15.20;83.90
61765;DHT22;50188;48.114;-1.388;2022-07-06T04:39:18;15.20;84.90
61765;DHT22;50188;48.114;-1.388;2022-07-06T04:41:44;15.20;86.60
61765;DHT22;50188;48.114;-1.388;2022-07-06T04:44:10;15.00;89.20
61765;DHT22;50188;48.114;-1.388;2022-07-06T04:46:35;15.10;89.80
61765;DHT22;50188;48.114;-1.388;2022-07-06T04:49:01;15.20;89.60
61765;DHT22;50188;48.114;-1.388;2022-07-06T04:51:26;15.20;90.00
61765;DHT22;50188;48.114;-1.388;2022-07-06T04:53:52;15.20;90.20
61765;DHT22;50188;48.114;-1.388;2022-07-06T04:56:18;15.30;90.20
61765;DHT22;50188;48.114;-1.388;2022-07-06T04:58:43;15.40;90.10
61765;DHT22;50188;48.114;-1.388;2022-07-06T05:01:09;15.70;89.70
61765;DHT22;50188;48.114;-1.388;2022-07-06T05:03:35;16.60;87.90
61765;DHT22;50188;48.114;-1.388;2022-07-06T05:06:06;17.60;84.00
61765;DHT22;50188;48.114;-1.388;2022-07-06T05:08:32;18.60;79.50
61765;DHT22;50188;48.114;-1.388;2022-07-06T05:10:57;19.30;76.20
61765;DHT22;50188;48.114;-1.388;2022-07-06T05:13:23;19.90;73.40
61765;DHT22;50188;48.114;-1.388;2022-07-06T05:15:48;20.60;70.70
61765;DHT22;50188;48.114;-1.388;2022-07-06T05:18:14;21.40;67.80
61765;DHT22;50188;48.114;-1.388;2022-07-06T05:20:40;22.00;65.10
61765;DHT22;50188;48.114;-1.388;2022-07-06T05:23:05;22.20;62.50
61765;DHT22;50188;48.114;-1.388;2022-07-06T05:25:31;22.70;60.50
61765;DHT22;50188;48.114;-1.388;2022-07-06T05:27:58;23.00;58.80
61765;DHT22;50188;48.114;-1.388;2022-07-06T05:30:24;23.60;58.30
61765;DHT22;50188;48.114;-1.388;2022-07-06T05:32:50;24.00;56.00
61765;DHT22;50188;48.114;-1.388;2022-07-06T05:35:16;24.40;54.10
61765;DHT22;50188;48.114;-1.388;2022-07-06T05:37:42;24.70;51.80
61765;DHT22;50188;48.114;-1.388;2022-07-06T05:40:08;25.10;52.10
61765;DHT22;50188;48.114;-1.388;2022-07-06T05:42:34;25.70;50.20
61765;DHT22;50188;48.114;-1.388;2022-07-06T05:44:59;25.80;47.80
61765;DHT22;50188;48.114;-1.388;2022-07-06T05:47:25;26.00;48.20
61765;DHT22;50188;48.114;-1.388;2022-07-06T05:50:11;26.50;47.00
61765;DHT22;50188;48.114;-1.388;2022-07-06T05:52:41;25.90;46.60
61765;DHT22;50188;48.114;-1.388;2022-07-06T05:55:09;26.20;47.00
61765;DHT22;50188;48.114;-1.388;2022-07-06T05:57:35;26.40;46.00
61765;DHT22;50188;48.114;-1.388;2022-07-06T06:00:01;26.60;45.80
61765;DHT22;50188;48.114;-1.388;2022-07-06T06:02:35;26.50;45.00
61765;DHT22;50188;48.114;-1.388;2022-07-06T06:05:01;26.10;45.00
61765;DHT22;50188;48.114;-1.388;2022-07-06T06:07:26;25.50;47.10
61765;DHT22;50188;48.114;-1.388;2022-07-06T06:09:52;25.00;47.30
61765;DHT22;50188;48.114;-1.388;2022-07-06T06:12:18;24.90;48.40
61765;DHT22;50188;48.114;-1.388;2022-07-06T06:14:43;24.90;48.10
61765;DHT22;50188;48.114;-1.388;2022-07-06T06:17:09;24.70;48.90
61765;DHT22;50188;48.114;-1.388;2022-07-06T06:22:09;24.70;49.70
61765;DHT22;50188;48.114;-1.388;2022-07-06T06:24:35;25.10;49.80
61765;DHT22;50188;48.114;-1.388;2022-07-06T06:27:01;25.10;48.80
61765;DHT22;50188;48.114;-1.388;2022-07-06T06:29:27;25.30;48.50
61765;DHT22;50188;48.114;-1.388;2022-07-06T06:31:53;25.30;49.30
61765;DHT22;50188;48.114;-1.388;2022-07-06T06:34:19;25.50;48.20
61765;DHT22;50188;48.114;-1.388;2022-07-06T06:36:45;25.60;48.80
61765;DHT22;50188;48.114;-1.388;2022-07-06T06:39:11;25.80;49.10
61765;DHT22;50188;48.114;-1.388;2022-07-06T06:41:37;25.50;47.90
61765;DHT22;50188;48.114;-1.388;2022-07-06T06:44:03;25.80;48.00
61765;DHT22;50188;48.114;-1.388;2022-07-06T06:46:29;26.20;47.80
61765;DHT22;50188;48.114;-1.388;2022-07-06T06:48:55;27.10;46.60
61765;DHT22;50188;48.114;-1.388;2022-07-06T06:51:21;26.20;45.50
61765;DHT22;50188;48.114;-1.388;2022-07-06T06:53:47;26.10;47.60
61765;DHT22;50188;48.114;-1.388;2022-07-06T06:56:22;25.90;47.40
61765;DHT22;50188;48.114;-1.388;2022-07-06T06:58:48;26.20;46.30
61765;DHT22;50188;48.114;-1.388;2022-07-06T07:01:14;26.60;47.00
61765;DHT22;50188;48.114;-1.388;2022-07-06T07:03:40;27.10;46.50
61765;DHT22;50188;48.114;-1.388;2022-07-06T07:06:06;27.40;45.50
61765;DHT22;50188;48.114;-1.388;2022-07-06T07:08:33;27.30;43.90
61765;DHT22;50188;48.114;-1.388;2022-07-06T07:37:27;28.40;41.80
61765;DHT22;50188;48.114;-1.388;2022-07-06T07:39:52;28.90;42.20
61765;DHT22;50188;48.114;-1.388;2022-07-06T07:42:18;28.20;41.20
61765;DHT22;50188;48.114;-1.388;2022-07-06T07:44:43;27.10;42.50
61765;DHT22;50188;48.114;-1.388;2022-07-06T07:47:09;27.30;45.00
61765;DHT22;50188;48.114;-1.388;2022-07-06T07:49:35;26.90;42.00
61765;DHT22;50188;48.114;-1.388;2022-07-06T07:52:01;26.90;43.60
61765;DHT22;50188;48.114;-1.388;2022-07-06T07:54:26;27.00;43.70
61765;DHT22;50188;48.114;-1.388;2022-07-06T07:56:52;26.90;44.70
61765;DHT22;50188;48.114;-1.388;2022-07-06T07:59:22;26.90;44.70
61765;DHT22;50188;48.114;-1.388;2022-07-06T08:04:33;27.00;46.80
61765;DHT22;50188;48.114;-1.388;2022-07-06T08:06:59;27.10;43.30
61765;DHT22;50188;48.114;-1.388;2022-07-06T08:09:25;26.90;43.40
61765;DHT22;50188;48.114;-1.388;2022-07-06T08:12:03;27.10;45.10
61765;DHT22;50188;48.114;-1.388;2022-07-06T08:14:31;26.70;44.40
61765;DHT22;50188;48.114;-1.388;2022-07-06T08:16:57;26.70;45.60
61765;DHT22;50188;48.114;-1.388;2022-07-06T08:19:23;26.70;45.80
61765;DHT22;50188;48.114;-1.388;2022-07-06T08:25:45;26.50;43.90
61765;DHT22;50188;48.114;-1.388;2022-07-06T08:28:11;26.50;45.20
61765;DHT22;50188;48.114;-1.388;2022-07-06T08:30:36;26.70;43.90
61765;DHT22;50188;48.114;-1.388;2022-07-06T08:33:02;26.70;44.70
61765;DHT22;50188;48.114;-1.388;2022-07-06T08:35:28;27.10;45.80
61765;DHT22;50188;48.114;-1.388;2022-07-06T08:37:53;27.20;43.20
61765;DHT22;50188;48.114;-1.388;2022-07-06T08:40:19;27.20;42.80
61765;DHT22;50188;48.114;-1.388;2022-07-06T08:42:45;27.00;44.10
61765;DHT22;50188;48.114;-1.388;2022-07-06T08:45:14;26.70;43.60
61765;DHT22;50188;48.114;-1.388;2022-07-06T08:47:41;26.80;44.40
61765;DHT22;50188;48.114;-1.388;2022-07-06T08:50:07;26.90;43.10
61765;DHT22;50188;48.114;-1.388;2022-07-06T08:52:35;27.20;42.50
61765;DHT22;50188;48.114;-1.388;2022-07-06T08:55:03;27.40;42.80
61765;DHT22;50188;48.114;-1.388;2022-07-06T08:57:29;26.80;41.30
61765;DHT22;50188;48.114;-1.388;2022-07-06T08:59:54;27.10;42.60
61765;DHT22;50188;48.114;-1.388;2022-07-06T09:02:24;27.20;44.00
61765;DHT22;50188;48.114;-1.388;2022-07-06T09:04:51;27.10;41.40
61765;DHT22;50188;48.114;-1.388;2022-07-06T09:07:19;27.20;42.10
61765;DHT22;50188;48.114;-1.388;2022-07-06T09:09:45;27.40;39.70
61765;DHT22;50188;48.114;-1.388;2022-07-06T09:12:11;27.70;39.40
61765;DHT22;50188;48.114;-1.388;2022-07-06T09:14:38;28.50;41.00
61765;DHT22;50188;48.114;-1.388;2022-07-06T09:17:06;28.50;40.40
61765;DHT22;50188;48.114;-1.388;2022-07-06T09:19:33;28.90;40.40
61765;DHT22;50188;48.114;-1.388;2022-07-06T09:22:00;29.00;39.00
61765;DHT22;50188;48.114;-1.388;2022-07-06T09:24:26;29.20;38.40
61765;DHT22;50188;48.114;-1.388;2022-07-06T09:26:55;28.90;37.00
61765;DHT22;50188;48.114;-1.388;2022-07-06T09:29:31;28.90;36.50
61765;DHT22;50188;48.114;-1.388;2022-07-06T09:32:02;29.10;35.50
61765;DHT22;50188;48.114;-1.388;2022-07-06T09:34:42;29.10;38.50
61765;DHT22;50188;48.114;-1.388;2022-07-06T09:37:08;29.40;36.50
61765;DHT22;50188;48.114;-1.388;2022-07-06T09:39:34;29.20;36.00
61765;DHT22;50188;48.114;-1.388;2022-07-06T09:42:01;28.40;36.30
61765;DHT22;50188;48.114;-1.388;2022-07-06T09:44:34;28.10;37.00
61765;DHT22;50188;48.114;-1.388;2022-07-06T09:47:01;28.00;37.90
61765;DHT22;50188;48.114;-1.388;2022-07-06T09:49:28;27.60;39.40
61765;DHT22;50188;48.114;-1.388;2022-07-06T09:51:56;28.20;40.10
61765;DHT22;50188;48.114;-1.388;2022-07-06T09:54:22;28.60;38.80
61765;DHT22;50188;48.114;-1.388;2022-07-06T09:56:49;28.70;36.20
61765;DHT22;50188;48.114;-1.388;2022-07-06T09:59:23;29.20;38.30
61765;DHT22;50188;48.114;-1.388;2022-07-06T10:01:52;29.10;36.70
61765;DHT22;50188;48.114;-1.388;2022-07-06T10:04:18;28.90;37.30
61765;DHT22;50188;48.114;-1.388;2022-07-06T10:06:45;29.10;34.30
61765;DHT22;50188;48.114;-1.388;2022-07-06T10:09:12;28.70;34.40
61765;DHT22;50188;48.114;-1.388;2022-07-06T10:11:42;28.90;36.60
61765;DHT22;50188;48.114;-1.388;2022-07-06T10:14:08;28.10;34.60
61765;DHT22;50188;48.114;-1.388;2022-07-06T10:16:36;29.00;37.10
61765;DHT22;50188;48.114;-1.388;2022-07-06T10:19:06;28.00;36.90
61765;DHT22;50188;48.114;-1.388;2022-07-06T10:21:35;27.80;39.30
61765;DHT22;50188;48.114;-1.388;2022-07-06T10:24:02;27.60;38.70
61765;DHT22;50188;48.114;-1.388;2022-07-06T10:26:27;27.40;39.60
61765;DHT22;50188;48.114;-1.388;2022-07-06T10:28:54;27.50;39.50
61765;DHT22;50188;48.114;-1.388;2022-07-06T10:31:21;27.80;38.30
61765;DHT22;50188;48.114;-1.388;2022-07-06T10:33:47;28.20;37.50
61765;DHT22;50188;48.114;-1.388;2022-07-06T10:36:13;28.20;39.40
61765;DHT22;50188;48.114;-1.388;2022-07-06T10:38:40;28.50;36.80
61765;DHT22;50188;48.114;-1.388;2022-07-06T10:41:08;28.50;35.90
61765;DHT22;50188;48.114;-1.388;2022-07-06T10:43:45;28.40;36.00
61765;DHT22;50188;48.114;-1.388;2022-07-06T10:46:15;28.80;37.90
61765;DHT22;50188;48.114;-1.388;2022-07-06T10:48:43;29.00;37.20
61765;DHT22;50188;48.114;-1.388;2022-07-06T10:51:11;29.00;35.60
61765;DHT22;50188;48.114;-1.388;2022-07-06T10:53:39;29.00;36.10
61765;DHT22;50188;48.114;-1.388;2022-07-06T10:56:07;29.20;35.40
61765;DHT22;50188;48.114;-1.388;2022-07-06T10:58:48;28.40;36.30
61765;DHT22;50188;48.114;-1.388;2022-07-06T11:01:19;28.30;36.80
61765;DHT22;50188;48.114;-1.388;2022-07-06T11:04:07;27.80;38.00
61765;DHT22;50188;48.114;-1.388;2022-07-06T11:06:38;28.10;38.20
61765;DHT22;50188;48.114;-1.388;2022-07-06T11:09:09;28.10;37.90
61765;DHT22;50188;48.114;-1.388;2022-07-06T11:11:40;27.80;36.50
61765;DHT22;50188;48.114;-1.388;2022-07-06T11:14:12;28.00;36.80
61765;DHT22;50188;48.114;-1.388;2022-07-06T11:17:00;28.40;36.30
61765;DHT22;50188;48.114;-1.388;2022-07-06T11:19:30;28.20;37.20
61765;DHT22;50188;48.114;-1.388;2022-07-06T11:22:10;28.50;36.60
61765;DHT22;50188;48.114;-1.388;2022-07-06T11:24:40;28.90;36.50
61765;DHT22;50188;48.114;-1.388;2022-07-06T11:27:06;29.00;35.10
61765;DHT22;50188;48.114;-1.388;2022-07-06T11:29:33;29.00;34.60
61765;DHT22;50188;48.114;-1.388;2022-07-06T11:32:05;29.40;35.30
61765;DHT22;50188;48.114;-1.388;2022-07-06T11:34:37;29.60;35.70
61765;DHT22;50188;48.114;-1.388;2022-07-06T11:37:07;29.30;33.10
61765;DHT22;50188;48.114;-1.388;2022-07-06T11:39:34;30.10;34.50
61765;DHT22;50188;48.114;-1.388;2022-07-06T11:42:01;29.50;35.60
61765;DHT22;50188;48.114;-1.388;2022-07-06T11:44:29;29.40;37.90
61765;DHT22;50188;48.114;-1.388;2022-07-06T11:46:55;29.20;37.20
61765;DHT22;50188;48.114;-1.388;2022-07-06T11:49:23;29.50;36.80
61765;DHT22;50188;48.114;-1.388;2022-07-06T11:51:49;29.60;37.80
61765;DHT22;50188;48.114;-1.388;2022-07-06T11:54:17;29.60;34.20
61765;DHT22;50188;48.114;-1.388;2022-07-06T11:56:55;29.10;36.10
61765;DHT22;50188;48.114;-1.388;2022-07-06T11:59:26;29.10;35.40
61765;DHT22;50188;48.114;-1.388;2022-07-06T12:02:07;29.10;36.00
61765;DHT22;50188;48.114;-1.388;2022-07-06T12:04:35;29.20;36.90
61765;DHT22;50188;48.114;-1.388;2022-07-06T12:07:04;29.50;37.30
61765;DHT22;50188;48.114;-1.388;2022-07-06T12:09:31;28.30;34.90
61765;DHT22;50188;48.114;-1.388;2022-07-06T12:11:58;28.30;37.00
61765;DHT22;50188;48.114;-1.388;2022-07-06T12:14:27;27.80;36.80
61765;DHT22;50188;48.114;-1.388;2022-07-06T12:16:53;28.00;38.90
61765;DHT22;50188;48.114;-1.388;2022-07-06T12:19:21;28.30;39.00
61765;DHT22;50188;48.114;-1.388;2022-07-06T12:21:49;28.00;37.10
61765;DHT22;50188;48.114;-1.388;2022-07-06T12:24:21;28.10;37.50
61765;DHT22;50188;48.114;-1.388;2022-07-06T12:26:48;28.20;37.50
61765;DHT22;50188;48.114;-1.388;2022-07-06T12:29:14;28.30;35.70
61765;DHT22;50188;48.114;-1.388;2022-07-06T12:31:55;28.60;36.60
61765;DHT22;50188;48.114;-1.388;2022-07-06T12:34:26;28.70;38.70
61765;DHT22;50188;48.114;-1.388;2022-07-06T12:36:54;28.60;35.60
61765;DHT22;50188;48.114;-1.388;2022-07-06T12:39:22;29.00;36.20
61765;DHT22;50188;48.114;-1.388;2022-07-06T12:41:51;28.80;36.00
61765;DHT22;50188;48.114;-1.388;2022-07-06T12:44:19;28.50;36.50
61765;DHT22;50188;48.114;-1.388;2022-07-06T12:46:46;28.40;36.40
61765;DHT22;50188;48.114;-1.388;2022-07-06T12:49:16;27.90;38.80
61765;DHT22;50188;48.114;-1.388;2022-07-06T12:51:54;27.70;39.00
61765;DHT22;50188;48.114;-1.388;2022-07-06T12:54:20;27.50;37.80
61765;DHT22;50188;48.114;-1.388;2022-07-06T12:57:06;27.40;37.90
61765;DHT22;50188;48.114;-1.388;2022-07-06T12:59:38;27.90;40.90
61765;DHT22;50188;48.114;-1.388;2022-07-06T13:02:10;28.50;40.70
61765;DHT22;50188;48.114;-1.388;2022-07-06T13:04:42;28.20;38.30
61765;DHT22;50188;48.114;-1.388;2022-07-06T13:07:18;28.30;39.70
61765;DHT22;50188;48.114;-1.388;2022-07-06T13:09:44;28.50;39.10
61765;DHT22;50188;48.114;-1.388;2022-07-06T13:12:10;27.80;38.50
61765;DHT22;50188;48.114;-1.388;2022-07-06T13:14:36;27.50;38.10
61765;DHT22;50188;48.114;-1.388;2022-07-06T13:17:02;27.70;39.50
61765;DHT22;50188;48.114;-1.388;2022-07-06T13:19:28;28.00;38.50
61765;DHT22;50188;48.114;-1.388;2022-07-06T13:21:54;28.20;41.30
61765;DHT22;50188;48.114;-1.388;2022-07-06T13:24:20;27.70;40.70
61765;DHT22;50188;48.114;-1.388;2022-07-06T13:26:45;28.00;41.80
61765;DHT22;50188;48.114;-1.388;2022-07-06T13:29:12;28.00;42.20
61765;DHT22;50188;48.114;-1.388;2022-07-06T13:31:38;28.20;41.70
61765;DHT22;50188;48.114;-1.388;2022-07-06T13:34:06;28.50;41.00
61765;DHT22;50188;48.114;-1.388;2022-07-06T13:36:32;28.00;40.00
61765;DHT22;50188;48.114;-1.388;2022-07-06T13:38:58;27.60;41.50
61765;DHT22;50188;48.114;-1.388;2022-07-06T13:41:24;27.40;41.10
61765;DHT22;50188;48.114;-1.388;2022-07-06T13:43:50;27.30;40.10
61765;DHT22;50188;48.114;-1.388;2022-07-06T13:46:16;27.20;41.60
61765;DHT22;50188;48.114;-1.388;2022-07-06T13:48:43;27.00;42.00
61765;DHT22;50188;48.114;-1.388;2022-07-06T13:51:09;26.60;43.70
61765;DHT22;50188;48.114;-1.388;2022-07-06T13:53:35;26.80;44.10
61765;DHT22;50188;48.114;-1.388;2022-07-06T13:56:01;26.90;43.70
61765;DHT22;50188;48.114;-1.388;2022-07-06T13:58:26;26.70;42.80
61765;DHT22;50188;48.114;-1.388;2022-07-06T14:00:52;26.50;43.90
61765;DHT22;50188;48.114;-1.388;2022-07-06T14:03:18;26.80;43.80
61765;DHT22;50188;48.114;-1.388;2022-07-06T14:05:43;26.80;43.20
61765;DHT22;50188;48.114;-1.388;2022-07-06T14:08:10;27.10;43.10
61765;DHT22;50188;48.114;-1.388;2022-07-06T14:10:35;27.20;42.70
61765;DHT22;50188;48.114;-1.388;2022-07-06T14:13:01;27.30;44.00
61765;DHT22;50188;48.114;-1.388;2022-07-06T14:15:27;27.00;43.50
61765;DHT22;50188;48.114;-1.388;2022-07-06T14:17:52;26.40;43.90
61765;DHT22;50188;48.114;-1.388;2022-07-06T14:20:18;26.70;43.90
61765;DHT22;50188;48.114;-1.388;2022-07-06T14:22:44;26.70;43.60
61765;DHT22;50188;48.114;-1.388;2022-07-06T14:25:09;27.00;44.10
61765;DHT22;50188;48.114;-1.388;2022-07-06T14:27:35;27.00;43.40
61765;DHT22;50188;48.114;-1.388;2022-07-06T14:30:02;27.00;44.30
61765;DHT22;50188;48.114;-1.388;2022-07-06T14:32:28;27.00;43.10
61765;DHT22;50188;48.114;-1.388;2022-07-06T14:34:54;26.60;43.50
61765;DHT22;50188;48.114;-1.388;2022-07-06T14:37:20;26.50;43.70
61765;DHT22;50188;48.114;-1.388;2022-07-06T14:39:45;26.40;44.60
61765;DHT22;50188;48.114;-1.388;2022-07-06T14:42:12;26.50;45.70
61765;DHT22;50188;48.114;-1.388;2022-07-06T14:44:38;26.70;45.80
61765;DHT22;50188;48.114;-1.388;2022-07-06T14:47:04;27.00;46.20
61765;DHT22;50188;48.114;-1.388;2022-07-06T14:49:30;26.90;45.00
61765;DHT22;50188;48.114;-1.388;2022-07-06T14:51:56;26.80;45.60
61765;DHT22;50188;48.114;-1.388;2022-07-06T14:54:23;26.60;44.30
61765;DHT22;50188;48.114;-1.388;2022-07-06T14:56:49;26.50;44.80
61765;DHT22;50188;48.114;-1.388;2022-07-06T14:59:14;26.70;46.20
61765;DHT22;50188;48.114;-1.388;2022-07-06T15:01:40;26.60;45.00
61765;DHT22;50188;48.114;-1.388;2022-07-06T15:04:06;26.40;46.00
61765;DHT22;50188;48.114;-1.388;2022-07-06T15:06:32;26.60;46.40
61765;DHT22;50188;48.114;-1.388;2022-07-06T15:08:57;26.20;46.60
61765;DHT22;50188;48.114;-1.388;2022-07-06T15:11:23;26.10;46.10
61765;DHT22;50188;48.114;-1.388;2022-07-06T15:13:49;26.20;47.00
61765;DHT22;50188;48.114;-1.388;2022-07-06T15:16:14;26.40;46.40
61765;DHT22;50188;48.114;-1.388;2022-07-06T15:18:40;26.30;46.50
61765;DHT22;50188;48.114;-1.388;2022-07-06T15:21:06;26.10;46.40
61765;DHT22;50188;48.114;-1.388;2022-07-06T15:23:31;26.00;46.10
61765;DHT22;50188;48.114;-1.388;2022-07-06T15:25:57;26.00;46.50
61765;DHT22;50188;48.114;-1.388;2022-07-06T15:28:23;26.10;47.40
61765;DHT22;50188;48.114;-1.388;2022-07-06T15:30:52;26.10;49.40
61765;DHT22;50188;48.114;-1.388;2022-07-06T15:33:18;26.30;48.20
61765;DHT22;50188;48.114;-1.388;2022-07-06T15:35:44;26.10;47.90
61765;DHT22;50188;48.114;-1.388;2022-07-06T15:38:10;26.00;50.00
61765;DHT22;50188;48.114;-1.388;2022-07-06T15:40:35;25.90;47.70
61765;DHT22;50188;48.114;-1.388;2022-07-06T15:43:06;25.50;47.30
61765;DHT22;50188;48.114;-1.388;2022-07-06T15:45:31;25.40;49.60
61765;DHT22;50188;48.114;-1.388;2022-07-06T15:47:57;25.20;48.50
61765;DHT22;50188;48.114;-1.388;2022-07-06T15:50:22;25.40;50.90